ADDS METAR Data INFO
IDs: Format: Raw Decoded Include TAF

Data at: 1133 UTC 29 May 2017

KBEA 291115Z AUTO 12006KT 10SM -RA BKN110 A2985 RMK AO2 LTG DSNT NE THRU SE P0001
KBEA 291055Z AUTO 07004KT 10SM -RA BKN110 A2987 RMK AO2 LTG DSNT ALQS P0003
KBEA 291035Z AUTO 15006G17KT 10SM -RA SCT100 OVC120 A2985 RMK AO2 LTG DSNT E THRU S P0003
KBEA 291015Z AUTO 16011KT 10SM VCTSRA OVC110 22/22 A2987 RMK AO2 LTG DSNT E THRU SW P0002 T02180218
KBEA 290955Z AUTO 11003KT 10SM TSRA SCT017 SCT032 OVC110 A2990 RMK AO2 LTG DSNT ALQS P0001
KBEA 290935Z AUTO 30004KT 10SM TS BKN017 22/22 A2992 RMK AO2 LTG DSNT ALQS T02180218
KBEA 290915Z AUTO 18008G16KT 10SM -RA SCT017 BKN028 BKN070 18/18 A2989 RMK AO2 LTG DSNT E THRU SW T01830183
KBEA 290855Z AUTO 19018G28KT 10SM -RA SCT005 BKN015 OVC090 17/17 A2988 RMK AO2 LTG DSNT SE AND S P0001 60003 T01700170
KBEA 290835Z AUTO 16010KT 10SM -RA SCT006 SCT028 BKN090 A2988 RMK AO2 LTG DSNT SE THRU W
KBEA 290815Z AUTO 13010G16KT 10SM VCTS BKN004 OVC009 A2985 RMK AO2 LTG DSNT SE THRU W
KBEA 290755Z AUTO 10009KT 5SM -TSRA BKN004 BKN070 BKN090 A2988 RMK AO2 LTG DSNT E THRU SW P0001
KBEA 290735Z AUTO 07003KT 7SM -VCTSRA BKN006 BKN015 BKN070 A2989 RMK AO2 LTG DSNT ALQS
KBEA 290715Z AUTO 10005KT 10SM VCTS BKN006 A2993 RMK AO2 LTG DSNT ALQS
KBEA 290655Z AUTO 00000KT 10SM -VCTSRA SCT070 SCT090 A2994 RMK AO2 LTG DSNT ALQS P0001
KBEA 290635Z AUTO 06004KT 10SM -TSRA SCT070 BKN090 A2994 RMK AO2 LTG DSNT ALQS P0001
KBEA 290615Z AUTO 05004KT 10SM -RA SCT080 SCT090 A2996 RMK AO2 LTG DSNT ALQS P0001
KBEA 290555Z AUTO 09005KT 10SM -TSRA CLR A2999 RMK AO2 LTG DSNT ALQS P0001 60001
KBEA 290535Z AUTO 08006KT 10SM -TSRA SCT060 SCT075 SCT090 A2998 RMK AO2 LTG DSNT ALQS P0001
KBEA 290515Z AUTO 04005KT 10SM -TSRA SCT060 SCT090 BKN110 A2999 RMK AO2 LTG DSNT ALQS P0001
KBEA 290455Z AUTO 08003KT 10SM TSRA SCT032 SCT049 OVC110 A3000 RMK AO2 LTG DSNT ALQS
KBEA 290435Z AUTO 00000KT 10SM -TSRA SCT075 BKN110 27/27 A2999 RMK AO2 LTG DSNT ALQS T02650265
KBEA 290415Z AUTO 07005KT 10SM -VCTSRA CLR 27/27 A2998 RMK AO2 LTG DSNT SW THRU NE T02690269
KBEA 290355Z AUTO 07005KT 10SM SCT027 27/27 A2995 RMK AO2 LTG DSNT SW THRU NW T02700270
KBEA 290335Z AUTO 06006KT 10SM VCTS OVC027 27/27 A2993 RMK AO2 LTG DSNT SW T02700270
KBEA 290315Z AUTO 07005KT 10SM OVC025 27/27 A2991 RMK AO2 LTG DSNT SW AND W T02660266
KBEA 290255Z AUTO 08005KT 10SM OVC023 27/27 A2989 RMK AO2 LTG DSNT N T02650265
KBEA 290235Z AUTO 00000KT 10SM BKN021 27/27 A2991 RMK AO2 LTG DSNT W T02650265
KBEA 290215Z AUTO 08003KT 10SM CLR 27/27 A2987 RMK AO2 T02680268
KBEA 290155Z AUTO 12004KT 10SM VCTS CLR 27/25 A2984 RMK AO2 LTG DSNT NW T02700248
KBEA 290135Z AUTO 12005KT 10SM SCT019 SCT026 28/25 A2985 RMK AO2 LTG DSNT NW T02750247
KBEA 290115Z AUTO 10007KT 10SM SCT021 BKN026 28/25 A2985 RMK AO2 LTG DSNT N T02820249
KBEA 290055Z AUTO 13009KT 10SM BKN026 29/25 A2983 RMK AO2 T02860246
KBEA 290035Z AUTO 13011KT 10SM BKN026 29/25 A2982 RMK AO2 T02900246
KBEA 290015Z AUTO 12010KT 10SM BKN026 BKN031 29/25 A2983 RMK AO2 T02940247
KBEA 282355Z AUTO 14010G15KT 10SM BKN028 30/25 A2983 RMK AO2 T02970245 10337 20297
KBEA 282335Z AUTO 14012G17KT 10SM OVC028 30/25 A2982 RMK AO2 T03000248
KBEA 282315Z AUTO 13010G18KT 10SM OVC030 30/25 A2983 RMK AO2 LTG DSNT N T03000247
KBEA 282255Z AUTO 13011G23KT 10SM BKN027 OVC034 31/25 A2983 RMK AO2 T03050248
KBEA 282235Z AUTO 14014G23KT 10SM BKN027 OVC032 31/25 A2981 RMK AO2 T03130252
KBEA 282215Z AUTO 13017G22KT 10SM BKN027 32/25 A2982 RMK AO2 T03190252
KBEA 282155Z AUTO 13017G26KT 10SM BKN027 BKN034 32/25 A2983 RMK AO2 T03190251
KBEA 282135Z AUTO 12014G21KT 10SM BKN025 BKN032 OVC038 31/25 A2985 RMK AO2 T03100252
KBEA 282115Z AUTO 11013G19KT 10SM BKN025 BKN031 BKN040 32/26 A2986 RMK AO2 T03170258
KBEA 282055Z AUTO 12015G21KT 10SM SCT023 BKN033 BKN040 32/26 A2987 RMK AO2 LTG DSNT N T03180258
KBEA 282035Z AUTO 13014G22KT 10SM SCT028 BKN032 BKN039 32/26 A2987 RMK AO2 T03170257
KBEA 282015Z AUTO 13016G21KT 10SM SCT030 BKN040 BKN049 33/26 A2987 RMK AO2 T03280256
KBEA 281955Z AUTO 14014G19KT 10SM BKN030 BKN040 33/25 A2987 RMK AO2 T03260254
KBEA 281935Z AUTO 13013G19KT 10SM SCT030 BKN036 BKN044 34/26 A2988 RMK AO2 T03370257
KBEA 281915Z AUTO 11014KT 10SM BKN030 BKN038 33/26 A2988 RMK AO2 T03340258
KBEA 281855Z AUTO 11010G16KT 10SM BKN030 BKN039 33/26 A2988 RMK AO2 T03300257
KBEA 281835Z AUTO 12010G15KT 10SM BKN032 BKN039 BKN049 33/26 A2989 RMK AO2 T03300260
KBEA 281815Z AUTO 13009G15KT 10SM SCT032 OVC041 33/25 A2989 RMK AO2 T03280253
KBEA 281755Z AUTO 13007KT 10SM SCT030 BKN039 33/25 A2989 RMK AO2 T03260252 10327 20260
KBEA 281735Z AUTO 13009G15KT 10SM BKN030 BKN038 32/25 A2989 RMK AO2 T03230252
KBEA 281715Z AUTO 14010KT 10SM BKN028 BKN034 32/25 A2988 RMK AO2 T03240253
KBEA 281655Z AUTO 14010G15KT 10SM BKN026 32/26 A2988 RMK AO2 T03210255
KBEA 281635Z AUTO 15010G14KT 10SM BKN026 BKN034 32/26 A2987 RMK AO2 T03170255
KBEA 281615Z AUTO 14007KT 10SM BKN023 BKN029 BKN036 31/25 A2988 RMK AO2 T03100254
KBEA 281555Z AUTO 15007KT 10SM BKN021 BKN027 31/26 A2988 RMK AO2 T03050260
KBEA 281535Z AUTO 16005KT 10SM BKN021 BKN027 30/26 A2988 RMK AO2 T03000264
KBEA 281515Z AUTO 18007KT 10SM BKN019 30/27 A2987 RMK AO2 T03020266
KBEA 281455Z AUTO 19010KT 10SM BKN017 OVC023 29/29 A2987 RMK AO2 T02900287
KBEA 281435Z AUTO 18008KT 10SM OVC017 30/28 A2988 RMK AO2 T02950282
KBEA 281415Z AUTO 20009KT 10SM OVC017 29/28 A2987 RMK AO2 T02860284
KBEA 281355Z AUTO 18011KT 10SM BKN015 28/28 A2986 RMK AO2 T02810281
KBEA 281335Z AUTO 16007KT 10SM CLR 28/28 A2986 RMK AO2 T02750275
KBEA 281315Z AUTO 14006KT 10SM SCT018 27/27 A2985 RMK AO2 T02700270
KBEA 281255Z AUTO 15005KT 10SM BKN016 27/27 A2985 RMK AO2 T02670267
KBEA 281235Z AUTO 18004KT 10SM BKN016 26/26 A2984 RMK AO2 T02640264
KBEA 281215Z AUTO 17007KT 10SM OVC018 26/26 A2983 RMK AO2 T02610261
KBEA 281155Z AUTO 18005KT 10SM BKN014 OVC019 26/26 A2983 RMK AO2 T02610261
KBEA 281135Z AUTO 17005KT 10SM OVC014 26/26 A2982 RMK AO2 T02610261
KBEA 281115Z AUTO 18006KT 10SM OVC014 26/26 A2981 RMK AO2 T02610261
KBEA 281055Z AUTO 19008KT 10SM OVC010 26/26 A2981 RMK AO2 T02610261
KBEA 281035Z AUTO 19007KT 10SM OVC008 A2980 RMK AO2
KBEA 281015Z AUTO 17008KT 10SM OVC011 A2978 RMK AO2
KBEA 280955Z AUTO 16012G16KT 10SM BKN013 A2976 RMK AO2
KBEA 280935Z AUTO 16011KT 7SM CLR A2976 RMK AO2
KBEA 280915Z AUTO 16012KT 7SM CLR A2977 RMK AO2
KBEA 280855Z AUTO 16012G16KT 7SM CLR A2978 RMK AO2
KBEA 280835Z AUTO 16011KT 7SM CLR A2980 RMK AO2
KBEA 280815Z AUTO 15009KT 7SM CLR A2981 RMK AO2
KBEA 280755Z AUTO 16007KT 7SM CLR A2983 RMK AO2
KBEA 280735Z AUTO 16006KT 10SM CLR A2985 RMK AO2
KBEA 280715Z AUTO 16007KT 10SM CLR A2986 RMK AO2
KBEA 280655Z AUTO 17006KT 10SM CLR A2986 RMK AO2
KBEA 280635Z AUTO 16006KT 7SM CLR A2987 RMK AO2
KBEA 280615Z AUTO 17004KT 10SM SCT018 A2988 RMK AO2
KBEA 280555Z AUTO 17005KT 10SM SCT010 OVC018 A2989 RMK AO2
KBEA 280535Z AUTO 00000KT 10SM SCT010 OVC018 A2990 RMK AO2
KBEA 280515Z AUTO 20003KT 10SM SCT009 OVC016 A2991 RMK AO2
KBEA 280455Z AUTO 19004KT 10SM BKN009 OVC015 A2990 RMK AO2
KBEA 280435Z AUTO 00000KT 10SM OVC009 A2989 RMK AO2
KBEA 280415Z AUTO 14006KT 10SM OVC009 A2988 RMK AO2
KBEA 280355Z AUTO 14009KT 10SM OVC009 26/26 A2988 RMK AO2 T02630263
KBEA 280335Z AUTO 13007KT 10SM OVC009 A2987 RMK AO2
KBEA 280315Z AUTO 14008KT 10SM BKN009 26/26 A2986 RMK AO2 T02600260
KBEA 280255Z AUTO 13010KT 10SM SCT011 26/26 A2985 RMK AO2 T02620262
KBEA 280235Z AUTO 13010KT 10SM BKN013 27/27 A2985 RMK AO2 T02650265
KBEA 280215Z AUTO 13011G21KT 10SM BKN013 27/27 A2985 RMK AO2 T02660266
KBEA 280155Z AUTO 14012KT 10SM SCT013 27/27 A2984 RMK AO2 T02680268
KBEA 280135Z AUTO 13011G17KT 10SM CLR 27/25 A2984 RMK AO2 T02720247
KBEA 280115Z AUTO 13011G17KT 10SM CLR 28/25 A2983 RMK AO2 T02760246
KBEA 280055Z AUTO 13012G16KT 10SM CLR 28/25 A2982 RMK AO2 T02810247
KBEA 280035Z AUTO 14012G19KT 10SM CLR 29/25 A2982 RMK AO2 T02860245
KBEA 280015Z AUTO 14015G21KT 10SM CLR 29/25 A2981 RMK AO2 T02900245
KBEA 272355Z AUTO 15014G18KT 10SM CLR 30/25 A2981 RMK AO2 T03000246 10340 20300
KBEA 272335Z AUTO 13010KT 10SM CLR 31/25 A2981 RMK AO2 T03090248


Page loaded:  11:33 UTC  |   04:33 AM Pacific  |   05:33 AM Mountain  |   06:33 AM Central  |   07:33 AM Eastern

 

ADVISORIES

FORECASTS

FORECASTS

OBSERVATIONS

USER TOOLS

ABOUT US